Time;durP1;ratioP1;P1;durP2;ratioP2;P2;SDS_P1;SDS_P2;PMS_P1;PMS_P2;Temp;Humidity;BMP_temperature;BMP_pressure;BME280_temperature;BME280_humidity;BME280_pressure;Samples;Min_cycle;Max_cycle;Signal;HPM_P1;HPM_P2
2023/05/14 00:00:49;;;;;;;;;49.00;40.75;;;;;;;;5029309;28;11091;-79
2023/05/14 00:03:19;;;;;;;;;54.75;45.00;;;;;;;;5031415;28;11223;-79
2023/05/14 00:05:46;;;;;;;;;53.00;43.50;;;;;;;;5030549;28;11218;-79
2023/05/14 00:08:13;;;;;;;;;51.25;43.50;;;;;;;;5030976;28;11141;-79
2023/05/14 00:10:40;;;;;;;;;50.00;42.50;;;;;;;;5030088;28;11155;-79
2023/05/14 00:13:09;;;;;;;;;49.75;41.75;;;;;;;;5030150;28;11694;-80
2023/05/14 00:15:36;;;;;;;;;52.25;42.50;;;;;;;;5029626;28;11076;-80
2023/05/14 00:18:04;;;;;;;;;53.25;44.75;;;;;;;;5029569;28;11006;-80
2023/05/14 00:20:31;;;;;;;;;50.00;42.00;;;;;;;;5029442;28;11235;-79
2023/05/14 00:22:58;;;;;;;;;54.00;46.25;;;;;;;;5029744;28;11235;-79
2023/05/14 00:25:25;;;;;;;;;51.75;43.75;;;;;;;;5029466;28;11237;-80
2023/05/14 00:27:53;;;;;;;;;50.75;41.00;;;;;;;;5029926;28;11125;-79
2023/05/14 00:30:21;;;;;;;;;57.50;46.00;;;;;;;;5028597;28;12401;-79
2023/05/14 00:32:49;;;;;;;;;53.00;42.75;;;;;;;;5029333;28;11568;-79
2023/05/14 00:35:20;;;;;;;;;52.75;43.25;;;;;;;;5029447;28;11203;-80
2023/05/14 00:37:47;;;;;;;;;49.50;42.00;;;;;;;;5030450;28;11027;-79
2023/05/14 00:40:14;;;;;;;;;54.75;45.75;;;;;;;;5029812;28;11100;-79
2023/05/14 00:42:42;;;;;;;;;53.50;44.00;;;;;;;;5029572;28;11306;-79
2023/05/14 00:45:10;;;;;;;;;50.50;41.75;;;;;;;;5029078;28;11264;-79
2023/05/14 00:47:39;;;;;;;;;48.00;41.00;;;;;;;;5029538;28;11225;-79
2023/05/14 00:50:07;;;;;;;;;53.00;44.00;;;;;;;;5029519;28;11104;-80
2023/05/14 00:52:35;;;;;;;;;53.00;43.00;;;;;;;;5028994;28;11137;-79
2023/05/14 00:55:04;;;;;;;;;57.75;44.00;;;;;;;;5029756;28;11039;-79
2023/05/14 00:57:31;;;;;;;;;52.00;40.75;;;;;;;;5029824;28;11278;-79
2023/05/14 00:59:59;;;;;;;;;56.25;45.75;;;;;;;;5034840;28;10894;-80
2023/05/14 01:02:27;;;;;;;;;47.25;37.25;;;;;;;;5031074;28;11096;-80
2023/05/14 01:04:56;;;;;;;;;52.00;43.25;;;;;;;;5040239;28;10974;-79
2023/05/14 01:07:29;;;;;;;;;50.75;42.00;;;;;;;;5029714;28;11141;-79
2023/05/14 01:10:01;;;;;;;;;48.25;37.25;;;;;;;;5029590;28;11033;-80
2023/05/14 01:12:34;;;;;;;;;48.00;41.75;;;;;;;;5028880;28;11165;-79
2023/05/14 01:15:07;;;;;;;;;52.50;42.00;;;;;;;;5028602;28;11072;-80
2023/05/14 01:17:39;;;;;;;;;55.25;44.50;;;;;;;;5026999;28;11870;-79
2023/05/14 01:20:09;;;;;;;;;50.00;42.00;;;;;;;;5028624;28;11181;-79
2023/05/14 01:22:37;;;;;;;;;50.00;42.00;;;;;;;;5028706;28;11172;-78
2023/05/14 01:25:06;;;;;;;;;54.75;45.00;;;;;;;;5022228;28;11362;-79
2023/05/14 01:27:37;;;;;;;;;53.75;45.75;;;;;;;;5024591;28;11225;-79
2023/05/14 01:30:10;;;;;;;;;50.50;41.50;;;;;;;;5027721;28;11242;-79
2023/05/14 01:32:40;;;;;;;;;49.00;41.50;;;;;;;;5028507;28;11316;-79
2023/05/14 01:35:08;;;;;;;;;53.75;43.50;;;;;;;;5028731;28;11039;-79
2023/05/14 01:37:38;;;;;;;;;56.25;46.25;;;;;;;;5028759;28;11191;-79
2023/05/14 01:40:08;;;;;;;;;53.75;45.25;;;;;;;;5028560;28;12118;-79
2023/05/14 01:42:35;;;;;;;;;52.50;41.50;;;;;;;;5039910;28;11087;-79
2023/05/14 01:45:03;;;;;;;;;49.50;42.25;;;;;;;;5027741;28;11026;-79
2023/05/14 01:47:30;;;;;;;;;56.00;45.50;;;;;;;;5027843;28;11100;-78
2023/05/14 01:49:57;;;;;;;;;48.25;41.25;;;;;;;;5027970;28;11173;-79
2023/05/14 01:52:24;;;;;;;;;52.50;43.25;;;;;;;;5027919;28;11248;-79
2023/05/14 01:54:53;;;;;;;;;51.00;42.75;;;;;;;;5028071;28;11343;-78
2023/05/14 01:57:20;;;;;;;;;45.75;39.25;;;;;;;;5028346;28;11279;-79
2023/05/14 01:59:48;;;;;;;;;51.50;41.25;;;;;;;;5028216;28;11141;-79
2023/05/14 02:02:15;;;;;;;;;53.75;44.00;;;;;;;;5027934;28;11937;-79
2023/05/14 02:04:42;;;;;;;;;53.00;43.25;;;;;;;;5037975;28;11572;-79
2023/05/14 02:07:09;;;;;;;;;59.25;48.00;;;;;;;;5028388;28;11563;-79
2023/05/14 02:09:36;;;;;;;;;52.25;44.25;;;;;;;;5028656;28;11769;-79
2023/05/14 02:12:05;;;;;;;;;54.25;45.75;;;;;;;;5027624;28;11569;-78
2023/05/14 02:14:33;;;;;;;;;57.00;45.00;;;;;;;;5027883;28;11582;-78
2023/05/14 02:17:00;;;;;;;;;59.50;47.75;;;;;;;;5027836;28;11562;-79
2023/05/14 02:19:27;;;;;;;;;54.00;43.25;;;;;;;;5028263;28;12363;-79
2023/05/14 02:21:54;;;;;;;;;53.75;43.25;;;;;;;;5027419;28;11571;-79
2023/05/14 02:24:21;;;;;;;;;51.00;42.25;;;;;;;;5028123;28;11609;-79
2023/05/14 02:26:49;;;;;;;;;50.50;39.75;;;;;;;;5027965;28;11333;-78
2023/05/14 02:29:17;;;;;;;;;47.00;38.50;;;;;;;;5028621;28;11202;-79
2023/05/14 02:31:45;;;;;;;;;52.00;44.00;;;;;;;;5027374;28;11314;-78
2023/05/14 02:34:12;;;;;;;;;53.00;44.50;;;;;;;;5028039;28;11252;-79
2023/05/14 02:36:39;;;;;;;;;50.75;43.00;;;;;;;;5027896;28;11584;-78
2023/05/14 02:39:06;;;;;;;;;62.75;50.75;;;;;;;;5028709;28;11119;-78
2023/05/14 02:41:33;;;;;;;;;54.75;46.00;;;;;;;;5027525;28;11601;-79
2023/05/14 02:44:00;;;;;;;;;57.50;48.00;;;;;;;;5028292;28;11239;-79
2023/05/14 02:46:30;;;;;;;;;55.25;43.25;;;;;;;;5028641;28;11262;-80
2023/05/14 02:48:57;;;;;;;;;54.25;45.75;;;;;;;;5029015;28;11306;-79
2023/05/14 02:51:25;;;;;;;;;59.00;46.50;;;;;;;;5032192;28;11332;-79
2023/05/14 02:53:53;;;;;;;;;52.00;44.00;;;;;;;;5035434;28;11351;-78
2023/05/14 02:56:21;;;;;;;;;60.00;47.50;;;;;;;;5029480;28;11532;-79
2023/05/14 02:58:48;;;;;;;;;51.25;43.25;;;;;;;;5031997;28;11238;-79
2023/05/14 03:01:17;;;;;;;;;51.25;42.00;;;;;;;;5031263;28;11192;-80
2023/05/14 03:03:46;;;;;;;;;52.00;41.75;;;;;;;;5024360;28;11520;-78
2023/05/14 03:06:13;;;;;;;;;54.50;44.25;;;;;;;;5031463;28;11359;-78
2023/05/14 03:08:40;;;;;;;;;53.00;43.25;;;;;;;;5031568;28;11461;-79
2023/05/14 03:11:07;;;;;;;;;50.75;41.50;;;;;;;;5024263;28;11254;-79
2023/05/14 03:13:34;;;;;;;;;58.00;46.00;;;;;;;;5030660;28;11343;-78
2023/05/14 03:16:02;;;;;;;;;50.00;42.00;;;;;;;;5031042;28;11345;-79
2023/05/14 03:18:29;;;;;;;;;45.00;39.75;;;;;;;;5030618;28;11903;-79
2023/05/14 03:21:02;;;;;;;;;47.50;39.50;;;;;;;;5030989;28;11132;-78
2023/05/14 03:23:30;;;;;;;;;51.50;43.00;;;;;;;;5030930;28;11211;-78
2023/05/14 03:25:58;;;;;;;;;51.00;40.00;;;;;;;;5031382;28;11386;-79
2023/05/14 03:28:25;;;;;;;;;46.00;38.50;;;;;;;;5030614;28;11174;-78
2023/05/14 03:30:53;;;;;;;;;53.75;42.00;;;;;;;;5030532;28;11182;-78
2023/05/14 03:33:20;;;;;;;;;55.75;43.50;;;;;;;;5030537;28;11401;-78
2023/05/14 03:35:47;;;;;;;;;53.25;44.00;;;;;;;;5031340;28;11551;-79
2023/05/14 03:38:16;;;;;;;;;55.50;45.75;;;;;;;;5031292;28;11287;-79
2023/05/14 03:40:45;;;;;;;;;52.00;41.50;;;;;;;;5030522;28;11374;-79
2023/05/14 03:43:12;;;;;;;;;50.75;41.00;;;;;;;;5030370;28;11345;-80
2023/05/14 03:45:39;;;;;;;;;49.00;38.75;;;;;;;;5030423;28;11182;-79
2023/05/14 03:48:07;;;;;;;;;53.00;43.75;;;;;;;;5033526;28;11338;-79
2023/05/14 03:50:34;;;;;;;;;49.75;41.75;;;;;;;;5029949;28;12371;-79
2023/05/14 03:53:01;;;;;;;;;48.00;38.75;;;;;;;;5029242;28;11003;-80
2023/05/14 03:55:30;;;;;;;;;50.75;42.00;;;;;;;;5029638;28;11507;-78
2023/05/14 03:57:57;;;;;;;;;55.75;43.00;;;;;;;;5029431;28;11367;-79
2023/05/14 04:00:24;;;;;;;;;52.25;43.50;;;;;;;;5029121;28;11276;-79
2023/05/14 04:02:52;;;;;;;;;47.75;39.75;;;;;;;;5032195;28;11206;-79
2023/05/14 04:05:19;;;;;;;;;50.50;41.75;;;;;;;;5030091;28;11271;-78
2023/05/14 04:07:46;;;;;;;;;49.00;40.75;;;;;;;;5030097;28;11021;-79
2023/05/14 04:10:13;;;;;;;;;51.00;43.00;;;;;;;;5029035;28;11190;-80
2023/05/14 04:12:42;;;;;;;;;49.00;41.75;;;;;;;;5029915;28;11144;-79
2023/05/14 04:15:10;;;;;;;;;54.25;45.00;;;;;;;;5029020;28;11360;-79
2023/05/14 04:17:38;;;;;;;;;53.75;43.75;;;;;;;;5029438;28;11545;-79
2023/05/14 04:20:06;;;;;;;;;61.50;48.00;;;;;;;;5028966;28;11364;-78
2023/05/14 04:22:33;;;;;;;;;47.00;35.75;;;;;;;;5029215;28;11530;-79
2023/05/14 04:25:00;;;;;;;;;58.25;47.25;;;;;;;;5029324;28;11219;-78
2023/05/14 04:27:29;;;;;;;;;52.00;40.00;;;;;;;;5029186;28;11630;-78
2023/05/14 04:30:00;;;;;;;;;55.25;45.25;;;;;;;;5028902;28;11185;-79
2023/05/14 04:32:29;;;;;;;;;53.75;43.50;;;;;;;;5029207;28;11314;-78
2023/05/14 04:34:56;;;;;;;;;56.00;46.00;;;;;;;;5029101;28;12386;-79
2023/05/14 04:37:24;;;;;;;;;52.50;43.00;;;;;;;;5029852;28;11582;-79
2023/05/14 04:39:51;;;;;;;;;53.00;44.00;;;;;;;;5030433;28;11550;-79
2023/05/14 04:42:18;;;;;;;;;55.00;42.25;;;;;;;;5031006;28;11632;-78
2023/05/14 04:44:45;;;;;;;;;53.50;43.00;;;;;;;;5029897;28;11463;-78
2023/05/14 04:47:14;;;;;;;;;51.50;43.00;;;;;;;;5029839;28;11611;-79
2023/05/14 04:49:42;;;;;;;;;56.75;46.00;;;;;;;;5029004;28;11247;-80
2023/05/14 04:52:09;;;;;;;;;54.75;44.25;;;;;;;;5029560;28;11558;-78
2023/05/14 04:54:36;;;;;;;;;51.50;44.25;;;;;;;;5028326;28;11349;-79
2023/05/14 04:57:04;;;;;;;;;52.00;42.75;;;;;;;;5028344;28;11658;-77
2023/05/14 04:59:31;;;;;;;;;57.50;45.00;;;;;;;;5028340;28;12339;-80
2023/05/14 05:02:01;;;;;;;;;55.00;44.25;;;;;;;;5027843;28;11591;-79
2023/05/14 05:04:29;;;;;;;;;51.75;42.00;;;;;;;;5036354;28;11260;-79
2023/05/14 05:06:57;;;;;;;;;48.50;40.75;;;;;;;;5028766;28;11245;-79
2023/05/14 05:09:24;;;;;;;;;51.50;44.25;;;;;;;;5020434;28;11235;-79
2023/05/14 05:11:51;;;;;;;;;57.00;44.50;;;;;;;;5028097;28;11139;-79
2023/05/14 05:14:19;;;;;;;;;55.00;42.50;;;;;;;;5020539;28;11807;-79
2023/05/14 05:16:46;;;;;;;;;53.00;42.50;;;;;;;;5027918;28;11177;-78
2023/05/14 05:19:13;;;;;;;;;51.75;43.75;;;;;;;;5028313;28;11162;-79
2023/05/14 05:21:42;;;;;;;;;54.50;42.50;;;;;;;;5027880;28;11681;-79
2023/05/14 05:24:09;;;;;;;;;50.50;41.75;;;;;;;;5028438;28;10998;-79
2023/05/14 05:26:36;;;;;;;;;52.25;41.75;;;;;;;;5026784;28;11103;-79
2023/05/14 05:29:04;;;;;;;;;58.25;45.25;;;;;;;;5027791;28;11301;-79
2023/05/14 05:31:31;;;;;;;;;49.00;41.50;;;;;;;;5027526;28;11145;-79
2023/05/14 05:33:59;;;;;;;;;51.50;41.25;;;;;;;;5027488;28;10932;-79
2023/05/14 05:36:27;;;;;;;;;51.75;42.00;;;;;;;;5027976;28;11131;-80
2023/05/14 05:38:56;;;;;;;;;47.25;38.00;;;;;;;;5028106;28;11125;-80
2023/05/14 05:41:23;;;;;;;;;52.75;44.25;;;;;;;;5027796;28;11210;-79
2023/05/14 05:43:50;;;;;;;;;48.75;39.00;;;;;;;;5028680;28;11107;-79
2023/05/14 05:46:18;;;;;;;;;51.25;40.75;;;;;;;;5031517;28;10882;-80
2023/05/14 05:48:45;;;;;;;;;50.75;42.50;;;;;;;;5035758;28;10922;-79
2023/05/14 05:51:13;;;;;;;;;53.25;44.00;;;;;;;;5028339;28;11101;-81
2023/05/14 05:53:43;;;;;;;;;53.25;42.50;;;;;;;;5029350;28;11176;-79
2023/05/14 05:56:12;;;;;;;;;51.25;39.75;;;;;;;;5032795;28;10943;-83
2023/05/14 05:58:39;;;;;;;;;48.50;39.50;;;;;;;;5028384;28;11129;-86
2023/05/14 06:01:09;;;;;;;;;49.50;40.25;;;;;;;;5033407;28;10992;-83
2023/05/14 06:03:36;;;;;;;;;54.25;45.25;;;;;;;;5036664;28;11109;-83
2023/05/14 06:06:04;;;;;;;;;49.50;39.50;;;;;;;;5031340;28;11367;-82
2023/05/14 06:08:31;;;;;;;;;56.25;45.25;;;;;;;;5027987;28;11056;-80
2023/05/14 06:10:58;;;;;;;;;53.75;43.50;;;;;;;;5018207;28;11092;-79
2023/05/14 06:13:27;;;;;;;;;50.25;42.00;;;;;;;;5027783;28;11852;-77
2023/05/14 06:15:54;;;;;;;;;49.75;40.00;;;;;;;;5028109;28;11099;-80
2023/05/14 06:18:21;;;;;;;;;49.25;41.25;;;;;;;;5028082;28;10908;-79
2023/05/14 06:20:48;;;;;;;;;52.50;44.25;;;;;;;;5028246;28;11099;-80
2023/05/14 06:23:15;;;;;;;;;49.00;41.00;;;;;;;;5028137;28;11041;-79
2023/05/14 06:25:44;;;;;;;;;50.50;42.50;;;;;;;;5028412;28;10940;-78
2023/05/14 06:28:11;;;;;;;;;47.50;40.00;;;;;;;;5027861;28;11201;-80
2023/05/14 06:30:40;;;;;;;;;48.75;41.25;;;;;;;;5028121;28;10937;-81
2023/05/14 06:33:11;;;;;;;;;53.25;42.50;;;;;;;;5031332;28;10806;-78
2023/05/14 06:35:38;;;;;;;;;47.75;40.25;;;;;;;;5032006;28;11070;-82
2023/05/14 06:38:06;;;;;;;;;43.50;39.00;;;;;;;;5031345;28;10783;-79
2023/05/14 06:40:33;;;;;;;;;50.25;43.00;;;;;;;;5031650;28;10973;-80
2023/05/14 06:43:00;;;;;;;;;45.75;40.25;;;;;;;;5030669;28;10949;-80
2023/05/14 06:45:27;;;;;;;;;51.25;43.00;;;;;;;;5031319;28;10732;-79
2023/05/14 06:47:56;;;;;;;;;50.75;41.75;;;;;;;;5031555;28;11137;-81
2023/05/14 06:50:26;;;;;;;;;54.50;43.25;;;;;;;;5033220;28;11187;-83
2023/05/14 06:52:55;;;;;;;;;44.25;37.25;;;;;;;;5030661;28;10905;-83
2023/05/14 06:55:23;;;;;;;;;50.00;42.00;;;;;;;;5031615;28;11003;-83
2023/05/14 06:57:54;;;;;;;;;49.75;42.75;;;;;;;;5030684;28;11127;-84
2023/05/14 07:00:22;;;;;;;;;56.50;44.00;;;;;;;;5031195;28;11073;-84
2023/05/14 07:02:49;;;;;;;;;47.25;38.75;;;;;;;;5035529;28;11049;-84
2023/05/14 07:05:18;;;;;;;;;50.00;41.00;;;;;;;;5036706;28;11733;-84
2023/05/14 07:07:46;;;;;;;;;48.50;38.00;;;;;;;;5019172;28;11008;-87
2023/05/14 07:10:14;;;;;;;;;52.50;42.00;;;;;;;;5030737;28;11054;-87
2023/05/14 07:12:41;;;;;;;;;52.75;40.75;;;;;;;;5031787;28;11157;-86
2023/05/14 07:15:10;;;;;;;;;50.00;42.00;;;;;;;;5030768;28;10889;-82
2023/05/14 07:17:37;;;;;;;;;48.50;38.50;;;;;;;;5030820;28;11040;-80
2023/05/14 07:20:05;;;;;;;;;48.00;41.50;;;;;;;;5030027;28;11187;-81
2023/05/14 07:22:36;;;;;;;;;53.00;44.50;;;;;;;;5030365;28;11084;-81
2023/05/14 07:25:04;;;;;;;;;52.25;41.50;;;;;;;;5029634;28;11197;-79
2023/05/14 07:27:31;;;;;;;;;47.50;39.00;;;;;;;;5030238;28;11553;-81
2023/05/14 07:29:58;;;;;;;;;51.00;43.00;;;;;;;;5030282;28;11195;-81
2023/05/14 07:32:25;;;;;;;;;53.50;41.50;;;;;;;;5029855;28;12111;-80
2023/05/14 07:34:53;;;;;;;;;44.00;38.50;;;;;;;;5031058;28;11243;-84
2023/05/14 07:37:21;;;;;;;;;49.50;41.25;;;;;;;;5032808;28;11239;-80
2023/05/14 07:39:50;;;;;;;;;52.75;41.00;;;;;;;;5029338;28;11100;-81
2023/05/14 07:42:17;;;;;;;;;54.25;41.25;;;;;;;;5028417;28;11355;-80
2023/05/14 07:44:44;;;;;;;;;48.25;41.00;;;;;;;;5029154;28;11213;-80
2023/05/14 07:47:12;;;;;;;;;50.25;43.25;;;;;;;;5030276;28;11180;-85
2023/05/14 07:49:39;;;;;;;;;54.00;43.75;;;;;;;;5029520;28;11203;-81
2023/05/14 07:52:06;;;;;;;;;52.75;44.00;;;;;;;;5029667;28;11159;-81
2023/05/14 07:54:33;;;;;;;;;50.50;42.25;;;;;;;;5029429;28;11437;-81
2023/05/14 07:57:02;;;;;;;;;54.50;43.50;;;;;;;;5029563;28;11078;-83
2023/05/14 07:59:30;;;;;;;;;50.50;42.50;;;;;;;;5029891;28;11349;-86
2023/05/14 08:01:59;;;;;;;;;46.25;36.00;;;;;;;;5029195;28;11110;-81
2023/05/14 08:04:27;;;;;;;;;51.00;41.00;;;;;;;;5039364;28;11802;-82
2023/05/14 08:06:58;;;;;;;;;45.75;38.00;;;;;;;;5029586;28;11253;-82
2023/05/14 08:09:25;;;;;;;;;48.25;39.25;;;;;;;;5029992;28;11183;-80
2023/05/14 08:11:52;;;;;;;;;30.75;30.75;;;;;;;;5041977;28;11719;-80
2023/05/14 08:14:21;;;;;;;;;52.50;42.75;;;;;;;;5029887;28;11012;-82
2023/05/14 08:20:49;;;;;;;;;47.25;38.75;;;;;;;;5123335;27;14320;-79
2023/05/14 08:23:16;;;;;;;;;50.00;40.25;;;;;;;;5093500;28;11487;-82
2023/05/14 08:25:43;;;;;;;;;49.00;38.75;;;;;;;;5094203;28;11624;-78
2023/05/14 08:28:11;;;;;;;;;47.50;38.75;;;;;;;;5103118;28;11225;-84
2023/05/14 08:30:38;;;;;;;;;45.00;38.50;;;;;;;;5090605;28;11169;-79
2023/05/14 08:33:05;;;;;;;;;43.50;38.00;;;;;;;;5081658;28;11121;-80
2023/05/14 08:35:32;;;;;;;;;48.50;38.75;;;;;;;;5083937;28;11214;-80
2023/05/14 08:38:01;;;;;;;;;39.75;36.50;;;;;;;;5084168;28;11200;-79
2023/05/14 08:40:29;;;;;;;;;41.50;37.25;;;;;;;;5084282;28;10981;-78
2023/05/14 08:42:57;;;;;;;;;39.50;35.75;;;;;;;;5084365;28;11914;-79
2023/05/14 08:45:28;;;;;;;;;43.75;36.50;;;;;;;;5084176;28;10887;-77
2023/05/14 08:47:56;;;;;;;;;50.00;38.50;;;;;;;;5082634;28;10936;-74
2023/05/14 08:50:24;;;;;;;;;49.25;40.75;;;;;;;;5084267;28;11124;-79
2023/05/14 08:52:52;;;;;;;;;48.25;39.50;;;;;;;;5083747;28;11160;-77
2023/05/14 08:55:21;;;;;;;;;50.00;42.00;;;;;;;;5084185;28;10924;-77
2023/05/14 08:57:48;;;;;;;;;47.75;41.00;;;;;;;;5082944;28;11770;-74
2023/05/14 09:00:17;;;;;;;;;46.50;40.75;;;;;;;;5083112;27;11736;-74
2023/05/14 09:02:45;;;;;;;;;46.75;40.25;;;;;;;;5082218;28;10990;-75
2023/05/14 09:05:12;;;;;;;;;49.75;41.25;;;;;;;;5076483;28;11045;-75
2023/05/14 09:07:39;;;;;;;;;50.25;39.75;;;;;;;;5082904;28;11282;-75
2023/05/14 09:10:08;;;;;;;;;51.00;40.75;;;;;;;;5083364;28;11224;-75
2023/05/14 09:12:37;;;;;;;;;56.25;44.75;;;;;;;;5083494;28;11211;-75
2023/05/14 09:15:05;;;;;;;;;54.50;44.25;;;;;;;;5083419;28;12356;-75
2023/05/14 09:17:34;;;;;;;;;49.25;39.50;;;;;;;;5083574;28;11231;-76
2023/05/14 09:20:02;;;;;;;;;50.00;41.25;;;;;;;;5083065;28;11273;-76
2023/05/14 09:22:31;;;;;;;;;57.00;45.50;;;;;;;;5083527;28;11244;-75
2023/05/14 09:25:07;;;;;;;;;52.25;40.50;;;;;;;;5083568;28;11159;-74
2023/05/14 09:27:36;;;;;;;;;49.25;42.50;;;;;;;;5083287;28;11163;-75
2023/05/14 09:30:11;;;;;;;;;55.25;45.25;;;;;;;;5081689;28;11233;-80
2023/05/14 09:32:39;;;;;;;;;49.75;40.75;;;;;;;;5070188;28;11201;-75
2023/05/14 09:35:16;;;;;;;;;48.50;40.00;;;;;;;;5069664;28;11688;-79
2023/05/14 09:37:46;;;;;;;;;56.75;42.25;;;;;;;;5061744;28;10939;-77
2023/05/14 09:40:17;;;;;;;;;54.50;43.00;;;;;;;;5069851;28;10907;-76
2023/05/14 09:42:47;;;;;;;;;42.25;35.75;;;;;;;;5069662;28;11794;-77
2023/05/14 09:45:14;;;;;;;;;48.00;37.25;;;;;;;;5070202;28;10882;-76
2023/05/14 09:47:41;;;;;;;;;43.50;38.25;;;;;;;;5068383;28;11043;-75
2023/05/14 09:50:10;;;;;;;;;52.00;43.75;;;;;;;;5070187;28;11013;-78
2023/05/14 09:52:42;;;;;;;;;52.75;43.75;;;;;;;;5069502;28;10918;-77
2023/05/14 09:55:12;;;;;;;;;56.50;43.50;;;;;;;;5068929;28;11071;-75
2023/05/14 09:57:56;;;;;;;;;53.25;42.75;;;;;;;;5069482;28;10977;-76
2023/05/14 10:00:31;;;;;;;;;55.75;42.75;;;;;;;;5070079;28;11792;-77
2023/05/14 10:03:10;;;;;;;;;50.25;42.25;;;;;;;;5053022;28;11122;-74
2023/05/14 10:05:41;;;;;;;;;54.50;43.50;;;;;;;;5070644;28;11483;-76
2023/05/14 10:08:13;;;;;;;;;50.00;40.75;;;;;;;;5070940;28;10951;-74
2023/05/14 10:10:43;;;;;;;;;53.50;42.50;;;;;;;;5070179;28;10824;-77
2023/05/14 10:13:17;;;;;;;;;49.50;41.00;;;;;;;;5070311;28;10915;-77
2023/05/14 10:15:52;;;;;;;;;53.50;42.50;;;;;;;;5069829;28;10893;-78
2023/05/14 10:18:20;;;;;;;;;52.00;42.25;;;;;;;;5063067;28;10922;-81
2023/05/14 10:20:52;;;;;;;;;53.25;42.50;;;;;;;;5060578;28;10877;-77
2023/05/14 10:23:43;;;;;;;;;56.75;46.00;;;;;;;;5069381;28;11018;-79
2023/05/14 10:26:11;;;;;;;;;53.00;42.00;;;;;;;;5068957;28;11071;-77
2023/05/14 10:28:38;;;;;;;;;55.50;46.25;;;;;;;;5068624;28;11000;-75
2023/05/14 10:31:09;;;;;;;;;55.00;43.75;;;;;;;;5067416;28;11073;-78
2023/05/14 10:33:48;;;;;;;;;58.00;47.25;;;;;;;;5068389;28;10956;-77
2023/05/14 10:36:15;;;;;;;;;59.00;44.75;;;;;;;;5068017;28;10926;-76
2023/05/14 10:38:42;;;;;;;;;55.75;45.25;;;;;;;;5068493;28;11171;-77
2023/05/14 10:41:11;;;;;;;;;54.00;45.75;;;;;;;;5068829;28;10847;-76
2023/05/14 10:43:40;;;;;;;;;60.00;49.25;;;;;;;;5067954;28;10847;-76
2023/05/14 10:46:10;;;;;;;;;59.25;47.25;;;;;;;;5068071;28;11054;-78
2023/05/14 10:48:39;;;;;;;;;60.75;48.75;;;;;;;;5068772;28;10828;-76
2023/05/14 10:51:08;;;;;;;;;55.50;43.75;;;;;;;;5068455;28;11071;-77
2023/05/14 10:53:37;;;;;;;;;54.50;45.00;;;;;;;;5068495;28;11075;-77
2023/05/14 10:56:06;;;;;;;;;57.50;47.00;;;;;;;;5068399;28;10832;-77
2023/05/14 10:58:36;;;;;;;;;56.75;46.00;;;;;;;;5068152;28;11702;-79
2023/05/14 11:01:05;;;;;;;;;59.50;47.25;;;;;;;;5067395;27;11488;-75
2023/05/14 11:03:39;;;;;;;;;58.50;46.75;;;;;;;;5067785;28;11136;-75
2023/05/14 11:06:08;;;;;;;;;54.00;45.50;;;;;;;;5057481;28;10876;-76
2023/05/14 11:08:35;;;;;;;;;57.50;47.00;;;;;;;;5067641;28;11073;-79
2023/05/14 11:11:02;;;;;;;;;56.25;46.75;;;;;;;;5068478;28;10939;-77
2023/05/14 11:13:31;;;;;;;;;57.75;44.75;;;;;;;;5067477;28;10918;-77
2023/05/14 11:15:59;;;;;;;;;56.75;47.00;;;;;;;;5068330;28;10947;-77
2023/05/14 11:18:30;;;;;;;;;58.75;46.50;;;;;;;;5067750;28;10957;-76
2023/05/14 11:21:00;;;;;;;;;52.75;43.00;;;;;;;;5068465;28;10904;-78
2023/05/14 11:23:28;;;;;;;;;53.75;43.50;;;;;;;;5067794;28;10793;-77
2023/05/14 11:25:56;;;;;;;;;53.75;45.00;;;;;;;;5068628;28;10760;-78
2023/05/14 11:28:26;;;;;;;;;56.25;46.00;;;;;;;;5068123;28;10608;-79
2023/05/14 11:30:54;;;;;;;;;63.25;48.00;;;;;;;;5067987;28;10367;-80
2023/05/14 11:33:21;;;;;;;;;56.25;46.25;;;;;;;;5068252;28;10596;-78
2023/05/14 11:35:48;;;;;;;;;50.25;39.75;;;;;;;;5067715;28;10555;-75
2023/05/14 11:38:18;;;;;;;;;51.75;43.25;;;;;;;;5067734;28;10222;-76
2023/05/14 11:40:52;;;;;;;;;55.25;46.50;;;;;;;;5067826;28;10273;-77
2023/05/14 11:43:22;;;;;;;;;51.50;42.00;;;;;;;;5068521;28;10113;-75
2023/05/14 11:45:51;;;;;;;;;51.50;42.75;;;;;;;;5068753;28;10030;-75
2023/05/14 11:48:18;;;;;;;;;55.75;45.50;;;;;;;;5069370;28;9772;-77
2023/05/14 11:50:46;;;;;;;;;52.25;42.50;;;;;;;;5068804;28;9780;-78
2023/05/14 11:53:21;;;;;;;;;55.50;42.50;;;;;;;;5069079;28;9920;-77
2023/05/14 11:55:48;;;;;;;;;52.50;43.75;;;;;;;;5054747;28;9894;-77
2023/05/14 11:58:17;;;;;;;;;55.25;44.75;;;;;;;;5064777;28;10401;-77
2023/05/14 12:00:46;;;;;;;;;52.00;42.50;;;;;;;;5051869;28;9684;-77
2023/05/14 12:03:13;;;;;;;;;47.25;39.00;;;;;;;;5058696;28;9459;-80
2023/05/14 12:05:41;;;;;;;;;55.00;41.50;;;;;;;;5067247;28;9647;-80
2023/05/14 12:08:21;;;;;;;;;51.00;41.50;;;;;;;;5067335;28;10436;-80
2023/05/14 12:10:49;;;;;;;;;51.25;42.50;;;;;;;;5067499;28;9727;-79
2023/05/14 12:13:17;;;;;;;;;50.50;43.50;;;;;;;;5067696;28;9678;-79
2023/05/14 12:15:46;;;;;;;;;51.00;43.25;;;;;;;;5062647;28;9406;-79
2023/05/14 12:21:07;;;;;;;;;47.00;37.67;;;;;;;;5066133;28;9712;-80
2023/05/14 12:23:38;;;;;;;;;59.50;47.00;;;;;;;;5067133;28;9504;-82
2023/05/14 12:26:09;;;;;;;;;48.00;40.33;;;;;;;;5059630;28;10417;-81
2023/05/14 12:28:41;;;;;;;;;49.67;42.33;;;;;;;;5066818;28;9313;-81
2023/05/14 12:31:09;;;;;;;;;48.00;40.67;;;;;;;;5067391;28;9279;-84
2023/05/14 12:33:36;;;;;;;;;47.33;39.33;;;;;;;;5067475;28;9272;-80
2023/05/14 12:36:03;;;;;;;;;47.00;38.67;;;;;;;;5067188;28;9114;-80
2023/05/14 12:38:32;;;;;;;;;55.33;42.33;;;;;;;;5067460;28;9215;-82
2023/05/14 12:41:00;;;;;;;;;48.50;39.25;;;;;;;;5067146;28;9062;-79
2023/05/14 12:43:30;;;;;;;;;50.00;39.50;;;;;;;;5067476;28;8835;-85
2023/05/14 12:46:26;;;;;;;;;47.25;39.50;;;;;;;;5067653;28;8865;-81
2023/05/14 12:48:53;;;;;;;;;43.50;36.00;;;;;;;;5065470;28;8855;-84
2023/05/14 12:51:20;;;;;;;;;47.25;39.00;;;;;;;;5067382;28;8859;-84
2023/05/14 12:53:52;;;;;;;;;48.50;40.75;;;;;;;;5067024;28;8851;-82
2023/05/14 12:56:30;;;;;;;;;39.25;34.00;;;;;;;;5056024;28;8843;-83
2023/05/14 12:58:58;;;;;;;;;52.25;40.25;;;;;;;;5067148;28;8966;-81
2023/05/14 13:01:28;;;;;;;;;44.25;36.50;;;;;;;;5067109;28;8823;-84
2023/05/14 13:03:57;;;;;;;;;45.00;38.50;;;;;;;;5067199;28;8879;-87
2023/05/14 13:06:25;;;;;;;;;43.25;37.25;;;;;;;;5069613;28;8935;-81
2023/05/14 13:08:52;;;;;;;;;40.75;35.00;;;;;;;;5070678;28;8999;-85
2023/05/14 13:11:21;;;;;;;;;45.00;37.50;;;;;;;;5071630;28;8870;-81
2023/05/14 13:13:48;;;;;;;;;45.75;39.50;;;;;;;;5070950;28;9661;-85
2023/05/14 13:16:17;;;;;;;;;43.75;38.25;;;;;;;;5071293;28;9024;-82
2023/05/14 13:18:45;;;;;;;;;44.75;38.75;;;;;;;;5070893;28;8883;-83
2023/05/14 13:21:12;;;;;;;;;40.25;34.25;;;;;;;;5070728;28;8879;-83
2023/05/14 13:23:39;;;;;;;;;44.50;36.00;;;;;;;;5070643;28;8973;-81
2023/05/14 13:26:08;;;;;;;;;46.75;38.75;;;;;;;;5069690;28;8843;-82
2023/05/14 13:28:37;;;;;;;;;40.00;35.25;;;;;;;;5071135;28;8882;-82
2023/05/14 13:31:06;;;;;;;;;44.00;37.00;;;;;;;;5070849;28;8909;-81
2023/05/14 13:33:35;;;;;;;;;41.50;35.50;;;;;;;;5071416;28;8958;-82
2023/05/14 13:36:03;;;;;;;;;45.00;36.25;;;;;;;;5070801;28;8961;-84
2023/05/14 13:38:30;;;;;;;;;43.00;37.50;;;;;;;;5067497;28;8959;-86
2023/05/14 13:41:01;;;;;;;;;44.00;37.25;;;;;;;;5065066;28;9653;-83
2023/05/14 13:43:31;;;;;;;;;40.00;34.50;;;;;;;;5059088;28;8982;-84
2023/05/14 13:46:00;;;;;;;;;41.50;34.75;;;;;;;;5071013;28;8862;-86
2023/05/14 13:48:28;;;;;;;;;44.00;37.75;;;;;;;;5070643;28;8875;-83
2023/05/14 13:50:58;;;;;;;;;43.50;35.50;;;;;;;;5070850;28;8870;-83
2023/05/14 13:53:27;;;;;;;;;37.00;33.00;;;;;;;;5070254;28;8858;-82
2023/05/14 13:55:57;;;;;;;;;42.75;35.00;;;;;;;;5070433;28;8879;-82
2023/05/14 13:58:24;;;;;;;;;42.75;35.00;;;;;;;;5070275;28;8847;-85
2023/05/14 14:00:52;;;;;;;;;44.75;37.00;;;;;;;;5074012;28;8783;-88
2023/05/14 14:03:20;;;;;;;;;38.75;35.00;;;;;;;;5070224;28;8867;-82
2023/05/14 14:05:48;;;;;;;;;35.25;33.00;;;;;;;;5069603;28;8863;-79
2023/05/14 14:08:15;;;;;;;;;39.75;33.75;;;;;;;;5069738;28;9634;-82
2023/05/14 14:10:42;;;;;;;;;34.75;31.75;;;;;;;;5068881;28;8976;-84
2023/05/14 14:13:09;;;;;;;;;42.50;35.75;;;;;;;;5069576;28;8879;-81
2023/05/14 14:15:38;;;;;;;;;34.00;31.00;;;;;;;;5069589;28;8843;-84
2023/05/14 14:18:05;;;;;;;;;35.00;32.75;;;;;;;;5069878;28;8875;-84
2023/05/14 14:20:49;;;;;;;;;40.00;33.00;;;;;;;;5069237;28;8939;-81
2023/05/14 14:23:16;;;;;;;;;38.75;34.00;;;;;;;;5067501;28;8911;-85
2023/05/14 14:25:55;;;;;;;;;36.50;32.25;;;;;;;;5069236;28;8847;-84
2023/05/14 14:28:22;;;;;;;;;35.50;32.50;;;;;;;;5069800;28;8843;-83
2023/05/14 14:30:50;;;;;;;;;36.25;32.75;;;;;;;;5062377;28;8787;-83
2023/05/14 14:33:18;;;;;;;;;32.20;30.40;;;;;;;;5049349;28;8851;-85